createdAt,value
2018-10-06T00:00:30.863Z,99881.94
2018-10-06T00:02:56.824Z,99879.71
2018-10-06T00:05:22.761Z,99877.38
2018-10-06T00:07:48.756Z,99869.09
2018-10-06T00:10:14.685Z,99874.69
2018-10-06T00:12:40.654Z,99874.69
2018-10-06T00:15:06.640Z,99870.70
2018-10-06T00:17:32.588Z,99868.80
2018-10-06T00:19:58.540Z,99867.30
2018-10-06T00:22:24.476Z,99862.59
2018-10-06T00:24:50.437Z,99868.19
2018-10-06T00:27:16.397Z,99867.44
2018-10-06T00:29:42.344Z,99859.62
2018-10-06T00:32:08.276Z,99853.28
2018-10-06T00:34:34.250Z,99850.81
2018-10-06T00:37:00.198Z,99850.43
2018-10-06T00:39:26.155Z,99843.74
2018-10-06T00:41:52.157Z,99846.78
2018-10-06T00:44:18.109Z,99842.23
2018-10-06T00:46:44.073Z,99841.23
2018-10-06T00:49:10.033Z,99837.06
2018-10-06T00:51:36.051Z,99836.88
2018-10-06T00:54:02.014Z,99831.86
2018-10-06T00:56:27.984Z,99833.23
2018-10-06T00:58:53.937Z,99831.20
2018-10-06T01:01:19.891Z,99831.64
2018-10-06T01:03:45.876Z,99832.13
2018-10-06T01:06:11.828Z,99834.55
2018-10-06T01:08:37.753Z,99836.86
2018-10-06T01:11:03.727Z,99825.54
2018-10-06T01:13:29.732Z,99823.23
2018-10-06T01:15:55.665Z,99820.80
2018-10-06T01:18:21.589Z,99815.45
2018-10-06T01:20:47.562Z,99817.84
2018-10-06T01:23:13.516Z,99818.34
2018-10-06T01:25:39.473Z,99821.70
2018-10-06T01:28:05.425Z,99813.22
2018-10-06T01:30:31.379Z,99805.02
2018-10-06T01:32:57.340Z,99804.80
2018-10-06T01:35:23.281Z,99801.44
2018-10-06T01:37:49.212Z,99807.48
2018-10-06T01:40:15.173Z,99808.14
2018-10-06T01:42:41.145Z,99801.23
2018-10-06T01:45:07.079Z,99799.95
2018-10-06T01:47:33.076Z,99794.66
2018-10-06T01:49:59.071Z,99793.65
2018-10-06T01:52:25.034Z,99791.01
2018-10-06T01:54:51.019Z,99786.37
2018-10-06T01:57:16.987Z,99784.33
2018-10-06T01:59:42.930Z,99782.84
2018-10-06T02:02:08.885Z,99773.95
2018-10-06T02:04:34.822Z,99775.52
2018-10-06T02:07:00.773Z,99775.00
2018-10-06T02:09:26.725Z,99774.33
2018-10-06T02:11:52.696Z,99772.11
2018-10-06T02:14:18.650Z,99773.77
2018-10-06T02:16:44.605Z,99769.73
2018-10-06T02:19:10.570Z,99765.61
2018-10-06T02:21:36.517Z,99767.36
2018-10-06T02:24:02.460Z,99759.77
2018-10-06T02:26:28.420Z,99760.62
2018-10-06T02:28:54.352Z,99761.22
2018-10-06T02:31:20.290Z,99758.81
2018-10-06T02:33:46.233Z,99748.67
2018-10-06T02:36:12.195Z,99746.67
2018-10-06T02:38:38.152Z,99745.91
2018-10-06T02:41:04.137Z,99756.28
2018-10-06T02:43:30.085Z,99757.19
2018-10-06T02:45:56.024Z,99756.03
2018-10-06T02:48:21.962Z,99750.46
2018-10-06T02:50:47.898Z,99745.98
2018-10-06T02:53:13.841Z,99742.16
2018-10-06T02:55:39.773Z,99744.12
2018-10-06T02:58:05.713Z,99741.58
2018-10-06T03:00:31.664Z,99742.47
2018-10-06T03:02:57.622Z,99752.13
2018-10-06T03:05:23.550Z,99756.67
2018-10-06T03:07:49.483Z,99754.50
2018-10-06T03:10:15.452Z,99747.81
2018-10-06T03:12:41.425Z,99747.86
2018-10-06T03:15:07.357Z,99746.89
2018-10-06T03:17:33.305Z,99745.43
2018-10-06T03:19:59.240Z,99745.53
2018-10-06T03:22:25.216Z,99746.16
2018-10-06T03:24:51.176Z,99742.57
2018-10-06T03:27:17.131Z,99732.44
2018-10-06T03:29:43.116Z,99747.02
2018-10-06T03:32:09.060Z,99735.31
2018-10-06T03:34:35.028Z,99727.00
2018-10-06T03:37:00.977Z,99729.70
2018-10-06T03:39:26.911Z,99725.92
2018-10-06T03:41:52.848Z,99727.50
2018-10-06T03:44:18.825Z,99725.17
2018-10-06T03:46:44.800Z,99729.50
2018-10-06T03:49:10.792Z,99733.58
2018-10-06T03:51:36.739Z,99740.80
2018-10-06T03:54:02.792Z,99743.84
2018-10-06T03:56:28.702Z,99743.42
2018-10-06T03:58:54.658Z,99734.07
2018-10-06T04:01:20.579Z,99734.60
2018-10-06T04:03:46.552Z,99736.73
2018-10-06T04:06:12.516Z,99748.48
2018-10-06T04:08:38.493Z,99748.23
2018-10-06T04:11:04.457Z,99747.20
2018-10-06T04:13:30.404Z,99742.02
2018-10-06T04:15:56.337Z,99742.80
2018-10-06T04:18:22.300Z,99739.20
2018-10-06T04:20:48.249Z,99747.32
2018-10-06T04:23:14.207Z,99746.62
2018-10-06T04:25:40.153Z,99740.81
2018-10-06T04:28:06.139Z,99742.53
2018-10-06T04:30:32.080Z,99739.96
2018-10-06T04:32:58.030Z,99724.63
2018-10-06T04:35:23.984Z,99725.63
2018-10-06T04:37:49.939Z,99735.87
2018-10-06T04:40:15.902Z,99721.78
2018-10-06T04:42:41.854Z,99722.80
2018-10-06T04:45:07.811Z,99668.80
2018-10-06T04:47:33.814Z,99705.73
2018-10-06T04:49:59.756Z,99708.14
2018-10-06T04:52:25.683Z,99705.50
2018-10-06T04:54:51.635Z,99714.30
2018-10-06T04:57:17.570Z,99713.23
2018-10-06T04:59:43.525Z,99709.47
2018-10-06T05:02:09.481Z,99705.95
2018-10-06T05:04:35.452Z,99701.55
2018-10-06T05:07:01.417Z,99693.63
2018-10-06T05:09:27.373Z,99698.98
2018-10-06T05:11:53.340Z,99708.64
2018-10-06T05:14:19.318Z,99701.61
2018-10-06T05:16:45.314Z,99702.28
2018-10-06T05:19:11.313Z,99697.16
2018-10-06T05:21:37.268Z,99701.93
2018-10-06T05:24:03.271Z,99681.89
2018-10-06T05:26:29.225Z,99697.00
2018-10-06T05:28:55.190Z,99696.73
2018-10-06T05:31:21.126Z,99692.83
2018-10-06T05:33:47.138Z,99694.29
2018-10-06T05:36:13.055Z,99689.27
2018-10-06T05:38:39.016Z,99691.07
2018-10-06T05:41:04.959Z,99694.16
2018-10-06T05:43:30.911Z,99694.57
2018-10-06T05:45:56.839Z,99697.44
2018-10-06T05:48:22.828Z,99698.61
2018-10-06T05:50:48.836Z,99686.84
2018-10-06T05:53:14.822Z,99694.66
2018-10-06T05:55:40.759Z,99695.66
2018-10-06T05:58:06.783Z,99700.99
2018-10-06T06:00:32.731Z,99691.91
2018-10-06T06:02:58.708Z,99702.22
2018-10-06T06:05:24.648Z,99706.20
2018-10-06T06:07:50.581Z,99709.31
2018-10-06T06:10:16.569Z,99718.42
2018-10-06T06:12:43.453Z,99716.50
2018-10-06T06:15:09.389Z,99721.27
2018-10-06T06:17:35.332Z,99717.48
2018-10-06T06:20:01.320Z,99715.88
2018-10-06T06:22:27.287Z,99710.71
2018-10-06T06:24:53.243Z,99705.17
2018-10-06T06:27:19.261Z,99703.62
2018-10-06T06:29:45.232Z,99705.25
2018-10-06T06:32:11.211Z,99708.24
2018-10-06T06:34:37.160Z,99703.06
2018-10-06T06:37:03.094Z,99701.06
2018-10-06T06:39:29.049Z,99701.27
2018-10-06T06:41:55.001Z,99695.58
2018-10-06T06:44:21.122Z,99696.16
2018-10-06T06:46:46.889Z,99694.47
2018-10-06T06:49:12.820Z,99695.87
2018-10-06T06:51:38.744Z,99694.38
2018-10-06T06:54:04.695Z,99693.20
2018-10-06T06:56:30.629Z,99694.11
2018-10-06T06:58:56.562Z,99691.15
2018-10-06T07:01:22.521Z,99697.74
2018-10-06T07:03:48.456Z,99694.95
2018-10-06T07:06:14.412Z,99690.74
2018-10-06T07:08:40.360Z,99687.19
2018-10-06T07:11:06.329Z,99687.27
2018-10-06T07:13:32.301Z,99684.61
2018-10-06T07:15:58.261Z,99683.83
2018-10-06T07:18:24.270Z,99689.17
2018-10-06T07:20:50.240Z,99685.05
2018-10-06T07:23:16.196Z,99685.78
2018-10-06T07:25:42.211Z,99684.56
2018-10-06T07:28:08.134Z,99681.50
2018-10-06T07:30:34.078Z,99683.16
2018-10-06T07:33:00.013Z,99694.60
2018-10-06T07:35:26.152Z,99692.80
2018-10-06T07:37:52.263Z,99682.95
2018-10-06T07:40:18.252Z,99681.50
2018-10-06T07:42:44.250Z,99682.88
2018-10-06T07:45:10.245Z,99689.97
2018-10-06T07:47:36.239Z,99671.11
2018-10-06T07:50:03.300Z,99671.98
2018-10-06T07:52:29.281Z,99668.81
2018-10-06T07:54:55.214Z,99672.92
2018-10-06T07:57:21.196Z,99669.98
2018-10-06T07:59:47.196Z,99672.05
2018-10-06T08:02:13.218Z,99668.34
2018-10-06T08:04:39.202Z,99667.82
2018-10-06T08:07:05.153Z,99674.81
2018-10-06T08:09:31.124Z,99664.70
2018-10-06T08:11:57.082Z,99659.53
2018-10-06T08:14:23.035Z,99656.44
2018-10-06T08:16:49.153Z,99654.63
2018-10-06T08:19:15.084Z,99648.75
2018-10-06T08:21:41.038Z,99649.91
2018-10-06T08:24:06.992Z,99652.85
2018-10-06T08:26:32.926Z,99642.77
2018-10-06T08:28:58.956Z,99644.42
2018-10-06T08:31:24.889Z,99632.11
2018-10-06T08:33:50.865Z,99632.27
2018-10-06T08:36:16.844Z,99635.30
2018-10-06T08:38:42.812Z,99638.20
2018-10-06T08:41:08.779Z,99633.98
2018-10-06T08:43:34.733Z,99634.13
2018-10-06T08:46:00.694Z,99632.70
2018-10-06T08:48:26.646Z,99621.20
2018-10-06T08:50:52.633Z,99616.98
2018-10-06T08:53:18.655Z,99620.41
2018-10-06T08:55:44.711Z,99619.62
2018-10-06T08:58:10.658Z,99611.74
2018-10-06T09:00:36.613Z,99614.78
2018-10-06T09:03:02.587Z,99611.72
2018-10-06T09:05:28.537Z,99610.86
2018-10-06T09:07:54.514Z,99605.10
2018-10-06T09:10:20.475Z,99605.45
2018-10-06T09:12:46.489Z,99599.73
2018-10-06T09:15:12.426Z,99600.81
2018-10-06T09:17:39.430Z,99593.89
2018-10-06T09:20:05.431Z,99603.94
2018-10-06T09:22:31.482Z,99593.94
2018-10-06T09:24:57.471Z,99588.69
2018-10-06T09:27:23.450Z,99578.90
2018-10-06T09:29:49.460Z,99576.98
2018-10-06T09:32:15.419Z,99575.92
2018-10-06T09:34:41.355Z,99586.53
2018-10-06T09:37:07.337Z,99574.87
2018-10-06T09:39:33.397Z,99563.86
2018-10-06T09:41:59.410Z,99570.52
2018-10-06T09:44:25.402Z,99567.89
2018-10-06T09:46:51.357Z,99561.57
2018-10-06T09:49:17.313Z,99564.11
2018-10-06T09:51:43.329Z,99556.88
2018-10-06T09:54:09.404Z,99556.58
2018-10-06T09:56:35.350Z,99540.88
2018-10-06T09:59:01.308Z,99547.14
2018-10-06T10:01:27.270Z,99540.28
2018-10-06T10:03:53.261Z,99532.31
2018-10-06T10:06:19.309Z,99536.54
2018-10-06T10:08:45.378Z,99533.97
2018-10-06T10:11:11.361Z,99532.02
2018-10-06T10:13:37.312Z,99529.02
2018-10-06T10:16:03.254Z,99537.64
2018-10-06T10:18:29.371Z,99526.52
2018-10-06T10:20:55.301Z,99520.97
2018-10-06T10:23:21.289Z,99517.59
2018-10-06T10:25:47.271Z,99507.45
2018-10-06T10:28:13.272Z,99508.08
2018-10-06T10:30:39.236Z,99511.09
2018-10-06T10:33:05.186Z,99504.30
2018-10-06T10:35:31.180Z,99497.33
2018-10-06T10:37:57.163Z,99497.94
2018-10-06T10:40:23.141Z,99487.44
2018-10-06T10:42:49.113Z,99489.69
2018-10-06T10:45:15.115Z,99486.12
2018-10-06T10:47:41.104Z,99478.20
2018-10-06T10:50:07.084Z,99479.92
2018-10-06T10:52:33.048Z,99480.11
2018-10-06T10:54:59.003Z,99470.38
2018-10-06T10:57:24.944Z,99474.11
2018-10-06T10:59:50.989Z,99481.57
2018-10-06T11:02:16.905Z,99473.68
2018-10-06T11:04:42.964Z,99472.64
2018-10-06T11:07:08.862Z,99465.28
2018-10-06T11:09:34.845Z,99457.64
2018-10-06T11:12:00.801Z,99462.55
2018-10-06T11:14:26.778Z,99457.16
2018-10-06T11:16:52.704Z,99449.68
2018-10-06T11:19:18.665Z,99448.91
2018-10-06T11:21:44.623Z,99453.45
2018-10-06T11:24:10.583Z,99440.44
2018-10-06T11:26:36.563Z,99434.62
2018-10-06T11:29:02.544Z,99429.78
2018-10-06T11:31:28.482Z,99428.89
2018-10-06T11:33:54.462Z,99432.91
2018-10-06T11:36:20.441Z,99425.47
2018-10-06T11:38:47.229Z,99420.17
2018-10-06T11:41:13.174Z,99418.12
2018-10-06T11:43:39.109Z,99414.14
2018-10-06T11:46:05.076Z,99408.47
2018-10-06T11:48:31.009Z,99403.28
2018-10-06T11:50:56.961Z,99404.61
2018-10-06T11:53:22.941Z,99407.91
2018-10-06T11:55:48.881Z,99401.88
2018-10-06T11:58:14.856Z,99388.81
2018-10-06T12:00:40.875Z,99396.36
2018-10-06T12:03:06.924Z,99386.74
2018-10-06T12:05:32.960Z,99385.47
2018-10-06T12:07:58.886Z,99386.91
2018-10-06T12:10:24.857Z,99389.09
2018-10-06T12:12:50.805Z,99380.55
2018-10-06T12:15:16.757Z,99382.42
2018-10-06T12:17:42.733Z,99375.61
2018-10-06T12:20:08.720Z,99370.03
2018-10-06T12:22:34.678Z,99368.98
2018-10-06T12:25:00.661Z,99371.80
2018-10-06T12:27:26.614Z,99365.17
2018-10-06T12:29:52.578Z,99362.77
2018-10-06T12:32:18.574Z,99352.59
2018-10-06T12:34:44.656Z,99355.33
2018-10-06T12:37:10.552Z,99352.78
2018-10-06T12:39:36.549Z,99349.42
2018-10-06T12:42:02.568Z,99349.53
2018-10-06T12:44:28.515Z,99346.66
2018-10-06T12:46:54.459Z,99348.38
2018-10-06T12:49:20.412Z,99340.53
2018-10-06T12:51:46.356Z,99341.80
2018-10-06T12:54:12.336Z,99331.41
2018-10-06T12:56:38.293Z,99345.39
2018-10-06T12:59:04.228Z,99333.55
2018-10-06T13:01:30.168Z,99331.75
2018-10-06T13:03:56.128Z,99325.56
2018-10-06T13:06:22.114Z,99321.61
2018-10-06T13:08:48.049Z,99322.84
2018-10-06T13:11:14.001Z,99320.41
2018-10-06T13:13:39.985Z,99313.34
2018-10-06T13:16:05.976Z,99310.15
2018-10-06T13:18:31.939Z,99309.79
2018-10-06T13:20:57.874Z,99307.70
2018-10-06T13:23:23.856Z,99301.94
2018-10-06T13:25:49.808Z,99314.64
2018-10-06T13:28:15.774Z,99307.05
2018-10-06T13:30:41.853Z,99302.48
2018-10-06T13:33:08.872Z,99306.85
2018-10-06T13:35:34.828Z,99309.22
2018-10-06T13:38:00.787Z,99308.46
2018-10-06T13:40:26.717Z,99302.86
2018-10-06T13:42:52.725Z,99204.17
2018-10-06T13:45:18.663Z,99296.34
2018-10-06T13:47:44.745Z,99295.39
2018-10-06T13:50:10.716Z,99295.54
2018-10-06T13:52:36.708Z,99297.56
2018-10-06T13:55:02.654Z,99290.61
2018-10-06T13:57:28.610Z,99286.93
2018-10-06T13:59:54.604Z,99294.66
2018-10-06T14:02:20.619Z,99292.42
2018-10-06T14:04:46.606Z,99298.69
2018-10-06T14:07:12.629Z,99287.98
2018-10-06T14:09:38.563Z,99286.52
2018-10-06T14:12:04.551Z,99279.40
2018-10-06T14:14:30.493Z,99274.87
2018-10-06T14:16:56.459Z,99275.77
2018-10-06T14:19:22.429Z,99275.86
2018-10-06T14:21:48.393Z,99270.94
2018-10-06T14:24:14.345Z,99272.05
2018-10-06T14:26:40.282Z,99272.17
2018-10-06T14:29:06.221Z,99268.31
2018-10-06T14:31:32.167Z,99258.09
2018-10-06T14:33:58.115Z,99259.56
2018-10-06T14:36:24.078Z,99263.66
2018-10-06T14:38:50.008Z,99259.88
2018-10-06T14:41:15.998Z,99257.08
2018-10-06T14:43:41.981Z,99259.38
2018-10-06T14:46:07.922Z,99254.98
2018-10-06T14:48:33.883Z,99253.25
2018-10-06T14:50:59.820Z,99248.56
2018-10-06T14:53:25.772Z,99249.17
2018-10-06T14:55:51.751Z,99250.42
2018-10-06T14:58:17.734Z,99249.22
2018-10-06T15:00:43.690Z,99244.47
2018-10-06T15:03:09.644Z,99243.32
2018-10-06T15:05:35.601Z,99243.81
2018-10-06T15:08:01.533Z,99245.98
2018-10-06T15:10:27.535Z,99244.11
2018-10-06T15:12:53.460Z,99248.98
2018-10-06T15:15:19.428Z,99247.69
2018-10-06T15:17:45.408Z,99246.40
2018-10-06T15:20:11.374Z,99247.34
2018-10-06T15:22:38.458Z,99237.89
2018-10-06T15:25:04.389Z,99243.30
2018-10-06T15:27:30.365Z,99237.39
2018-10-06T15:29:56.322Z,99227.68
2018-10-06T15:32:22.343Z,99235.52
2018-10-06T15:34:48.287Z,99228.74
2018-10-06T15:37:14.290Z,99230.00
2018-10-06T15:39:40.225Z,99236.15
2018-10-06T15:42:06.198Z,99231.51
2018-10-06T15:44:32.148Z,99234.33
2018-10-06T15:46:58.148Z,99232.27
2018-10-06T15:49:24.096Z,99229.38
2018-10-06T15:51:50.080Z,99237.02
2018-10-06T15:54:16.009Z,99238.14
2018-10-06T15:56:41.971Z,99232.07
2018-10-06T15:59:07.906Z,99232.47
2018-10-06T16:01:33.883Z,99236.78
2018-10-06T16:03:59.853Z,99238.45
2018-10-06T16:06:25.831Z,99242.35
2018-10-06T16:08:51.883Z,99240.02
2018-10-06T16:11:17.837Z,99239.65
2018-10-06T16:13:43.810Z,99239.65
2018-10-06T16:16:09.774Z,99238.97
2018-10-06T16:18:35.717Z,99247.61
2018-10-06T16:21:01.685Z,99243.92
2018-10-06T16:23:27.640Z,99245.27
2018-10-06T16:25:53.582Z,99242.30
2018-10-06T16:28:19.544Z,99244.94
2018-10-06T16:30:45.505Z,99234.20
2018-10-06T16:33:11.457Z,99246.19
2018-10-06T16:35:37.418Z,99244.94
2018-10-06T16:38:03.440Z,99238.75
2018-10-06T16:40:29.467Z,99243.48
2018-10-06T16:42:55.409Z,99238.94
2018-10-06T16:45:21.349Z,99246.41
2018-10-06T16:47:47.275Z,99242.15
2018-10-06T16:50:13.219Z,99246.37
2018-10-06T16:52:39.277Z,99245.48
2018-10-06T16:55:05.336Z,99249.66
2018-10-06T16:57:31.319Z,99250.50
2018-10-06T16:59:57.305Z,99249.05
2018-10-06T17:02:23.261Z,99259.47
2018-10-06T17:04:49.278Z,99258.00
2018-10-06T17:07:15.221Z,99258.67
2018-10-06T17:09:41.201Z,99249.78
2018-10-06T17:12:07.174Z,99264.46
2018-10-06T17:14:33.125Z,99262.93
2018-10-06T17:16:59.099Z,99270.34
2018-10-06T17:19:25.203Z,99266.34
2018-10-06T17:21:51.191Z,99263.98
2018-10-06T17:24:17.237Z,99267.17
2018-10-06T17:26:43.116Z,99272.00
2018-10-06T17:29:09.090Z,99271.80
2018-10-06T17:31:35.125Z,99271.03
2018-10-06T17:34:01.095Z,99272.42
2018-10-06T17:36:27.036Z,99272.44
2018-10-06T17:38:53.064Z,99267.82
2018-10-06T17:41:18.996Z,99265.76
2018-10-06T17:43:44.949Z,99264.47
2018-10-06T17:46:10.909Z,99265.69
2018-10-06T17:48:36.867Z,99264.70
2018-10-06T17:51:02.820Z,99271.05
2018-10-06T17:53:28.786Z,99275.67
2018-10-06T17:55:54.786Z,99266.07
2018-10-06T17:58:20.937Z,99268.80
2018-10-06T18:00:46.889Z,99263.84
2018-10-06T18:03:12.827Z,99270.27
2018-10-06T18:05:38.884Z,99264.70
2018-10-06T18:08:04.873Z,99262.66
2018-10-06T18:10:30.836Z,99265.09
2018-10-06T18:12:56.942Z,99268.30
2018-10-06T18:15:22.914Z,99265.25
2018-10-06T18:17:48.933Z,99266.38
2018-10-06T18:20:14.907Z,99265.12
2018-10-06T18:22:40.892Z,99272.16
2018-10-06T18:25:06.866Z,99272.00
2018-10-06T18:27:32.847Z,99278.62
2018-10-06T18:29:58.810Z,99276.86
2018-10-06T18:32:24.796Z,99267.36
2018-10-06T18:34:50.757Z,99277.02
2018-10-06T18:37:16.829Z,99280.05
2018-10-06T18:39:42.815Z,99271.06
2018-10-06T18:42:08.766Z,99277.25
2018-10-06T18:44:34.742Z,99275.54
2018-10-06T18:47:00.724Z,99278.81
2018-10-06T18:49:26.803Z,99278.09
2018-10-06T18:51:52.831Z,99281.16
2018-10-06T18:54:18.917Z,99282.89
2018-10-06T18:56:44.898Z,99277.45
2018-10-06T18:59:10.869Z,99282.13
2018-10-06T19:01:36.812Z,99281.92
2018-10-06T19:04:02.874Z,99283.87
2018-10-06T19:06:28.745Z,99277.84
2018-10-06T19:08:54.718Z,99280.38
2018-10-06T19:11:21.709Z,99285.32
2018-10-06T19:13:47.662Z,99274.77
2018-10-06T19:16:13.733Z,99273.34
2018-10-06T19:18:39.635Z,99265.06
2018-10-06T19:21:05.603Z,99267.19
2018-10-06T19:23:31.533Z,99268.55
2018-10-06T19:25:57.467Z,99267.59
2018-10-06T19:28:23.460Z,99267.75
2018-10-06T19:30:49.419Z,99264.59
2018-10-06T19:33:15.376Z,99269.97
2018-10-06T19:35:41.313Z,99268.35
2018-10-06T19:38:07.266Z,99269.09
2018-10-06T19:40:33.225Z,99276.05
2018-10-06T19:42:59.182Z,99270.27
2018-10-06T19:45:25.150Z,99274.81
2018-10-06T19:47:51.110Z,99275.36
2018-10-06T19:50:17.048Z,99271.91
2018-10-06T19:52:43.005Z,99273.63
2018-10-06T19:55:08.961Z,99274.63
2018-10-06T19:57:34.926Z,99273.16
2018-10-06T20:00:00.906Z,99278.34
2018-10-06T20:02:26.868Z,99269.42
2018-10-06T20:04:52.857Z,99269.90
2018-10-06T20:07:18.850Z,99272.55
2018-10-06T20:09:44.789Z,99268.12
2018-10-06T20:12:10.775Z,99270.53
2018-10-06T20:14:36.777Z,99271.81
2018-10-06T20:17:02.769Z,99267.48
2018-10-06T20:19:28.756Z,99265.16
2018-10-06T20:21:54.860Z,99265.62
2018-10-06T20:24:20.811Z,99261.17
2018-10-06T20:26:46.827Z,99262.83
2018-10-06T20:29:12.763Z,99260.95
2018-10-06T20:31:38.724Z,99263.23
2018-10-06T20:34:04.730Z,99262.79
2018-10-06T20:36:30.749Z,99265.72
2018-10-06T20:38:56.807Z,99260.95
2018-10-06T20:41:22.773Z,99262.42
2018-10-06T20:43:48.701Z,99258.50
2018-10-06T20:46:14.876Z,99258.47
2018-10-06T20:48:40.782Z,99252.89
2018-10-06T20:51:06.727Z,99250.33
2018-10-06T20:53:32.709Z,99256.99
2018-10-06T20:55:58.676Z,99256.63
2018-10-06T20:58:26.914Z,99253.09
2018-10-06T21:00:53.038Z,99255.45
2018-10-06T21:03:18.984Z,99253.33
2018-10-06T21:05:44.940Z,99256.23
2018-10-06T21:08:10.871Z,99256.45
2018-10-06T21:10:36.825Z,99251.56
2018-10-06T21:13:02.995Z,99254.97
2018-10-06T21:15:28.960Z,99251.12
2018-10-06T21:17:55.109Z,99247.74
2018-10-06T21:20:21.061Z,99253.31
2018-10-06T21:22:47.024Z,99253.09
2018-10-06T21:25:13.011Z,99252.19
2018-10-06T21:27:39.006Z,99251.81
2018-10-06T21:30:04.951Z,99248.58
2018-10-06T21:32:31.011Z,99249.09
2018-10-06T21:34:56.962Z,99246.33
2018-10-06T21:37:22.955Z,99241.20
2018-10-06T21:39:48.903Z,99238.63
2018-10-06T21:42:14.878Z,99237.94
2018-10-06T21:44:40.816Z,99238.02
2018-10-06T21:47:06.770Z,99240.21
2018-10-06T21:49:32.705Z,99242.59
2018-10-06T21:51:58.683Z,99237.56
2018-10-06T21:54:24.640Z,99237.56
2018-10-06T21:56:50.601Z,99238.69
2018-10-06T21:59:16.567Z,99237.04
2018-10-06T22:01:42.526Z,99234.61
2018-10-06T22:04:08.476Z,99236.56
2018-10-06T22:06:34.408Z,99224.88
2018-10-06T22:09:00.375Z,99226.97
2018-10-06T22:11:26.327Z,99223.86
2018-10-06T22:13:52.320Z,99227.85
2018-10-06T22:16:18.281Z,99224.00
2018-10-06T22:18:44.226Z,99224.06
2018-10-06T22:21:10.170Z,99226.95
2018-10-06T22:23:36.130Z,99226.82
2018-10-06T22:26:02.084Z,99225.91
2018-10-06T22:28:28.061Z,99224.34
2018-10-06T22:30:54.010Z,99220.96
2018-10-06T22:33:19.943Z,99223.41
2018-10-06T22:35:45.936Z,99227.67
2018-10-06T22:38:11.917Z,99221.33
2018-10-06T22:40:37.876Z,99226.00
2018-10-06T22:43:03.831Z,99227.12
2018-10-06T22:45:29.766Z,99223.06
2018-10-06T22:47:55.735Z,99219.88
2018-10-06T22:50:21.723Z,99223.44
2018-10-06T22:52:47.660Z,99219.57
2018-10-06T22:55:13.610Z,99227.02
2018-10-06T22:57:39.534Z,99217.69
2018-10-06T23:00:05.492Z,99217.09
2018-10-06T23:02:31.459Z,99213.53
2018-10-06T23:04:57.401Z,99212.34
2018-10-06T23:07:23.351Z,99206.27
2018-10-06T23:09:49.294Z,99211.11
2018-10-06T23:12:15.263Z,99218.20
2018-10-06T23:14:41.220Z,99215.19
2018-10-06T23:17:07.203Z,99212.09
2018-10-06T23:19:33.141Z,99219.12
2018-10-06T23:21:59.088Z,99216.73
2018-10-06T23:24:25.048Z,99216.27
2018-10-06T23:26:50.994Z,99219.58
2018-10-06T23:29:16.961Z,99219.36
2018-10-06T23:31:42.889Z,99221.66
2018-10-06T23:34:08.867Z,99214.98
2018-10-06T23:36:34.825Z,99217.18
2018-10-06T23:39:00.788Z,99214.13
2018-10-06T23:41:27.348Z,99213.21
2018-10-06T23:43:53.320Z,99210.46
2018-10-06T23:46:19.244Z,99208.91
2018-10-06T23:48:45.179Z,99207.63
2018-10-06T23:51:11.132Z,99214.27
2018-10-06T23:53:37.069Z,99218.05
2018-10-06T23:56:03.070Z,99216.52
2018-10-06T23:58:29.008Z,99214.02
